A80 TRACON Summary / KATL TAF
ATL TRACON Summary:
Developing showers due to an upper level disturbance will approach the TRACON by 16z, but until that time, High pressure centered off the Mid-Atlantic Coast will continue to control the local weather. Surface winds will be southeast to east at 4-8kts and persistent SCT/BKN015-050 clouds will move through the TRACON. Flight Hazards in the TRACON airspace: none expected.

Updated: 5/25/2015 6:14 AM
ATL Terminal Aerodrome Forecast:

FTUS31 KATL 251139
KATL 251136Z 2512/2618 12009KT P6SM BKN012 BKN025
     FM251500 13007KT P6SM BKN025
     FM251800 13007KT P6SM VCSH BKN035
     FM252100 14009KT 6SM -SHRA BKN035 PROB30 2521/2601 3SM -TSRA
      BKN012CB
     FM260100 14007KT P6SM SCT025 BKN040
     FM260800 15006KT P6SM BKN009
     FM261500 16008KT P6SM BKN030
ATL TRACON Area Remark:
ISOLATED TS POSSIBLE (SW/W/NW) AFTER 17Z.
Convective Gate Forecast / Collaborative Convective Forecast Product / Vertical Wind Profile
Convective Gate Forecast
AIRMETs & SIGMETS/ Southeast Radar loop / Satellite Image (click on image to enlarge)

Southeast Radar Loop

 



USA.gov is the U.S. government's official web portal to all federal, state and local government web resources and services.